createdAt,value
2022-09-12T00:01:36.444Z,4.57
2022-09-12T00:04:06.829Z,4.30
2022-09-12T00:06:37.288Z,3.92
2022-09-12T00:11:37.727Z,4.18
2022-09-12T00:14:06.907Z,3.88
2022-09-12T00:16:37.147Z,4.20
2022-09-12T00:19:08.229Z,3.65
2022-09-12T00:21:38.431Z,4.00
2022-09-12T00:24:07.589Z,3.28
2022-09-12T00:26:36.289Z,2.97
2022-09-12T00:29:05.041Z,4.35
2022-09-12T00:31:33.650Z,3.22
2022-09-12T00:34:02.798Z,3.85
2022-09-12T00:36:32.990Z,3.65
2022-09-12T00:39:01.604Z,4.15
2022-09-12T00:41:31.548Z,3.70
2022-09-12T00:44:02.074Z,4.13
2022-09-12T00:46:37.318Z,3.85
2022-09-12T00:49:10.368Z,3.67
2022-09-12T00:51:45.698Z,3.60
2022-09-12T00:54:16.856Z,3.47
2022-09-12T00:56:46.361Z,3.30
2022-09-12T00:59:17.995Z,4.00
2022-09-12T01:01:47.107Z,3.72
2022-09-12T01:04:15.928Z,3.78
2022-09-12T01:06:46.216Z,4.10
2022-09-12T01:09:17.706Z,4.90
2022-09-12T01:11:48.621Z,3.83
2022-09-12T01:14:18.354Z,3.83
2022-09-12T01:16:47.397Z,3.80
2022-09-12T01:19:35.267Z,3.97
2022-09-12T01:22:16.138Z,3.92
2022-09-12T01:24:54.049Z,4.25
2022-09-12T01:27:31.662Z,3.85
2022-09-12T01:30:17.532Z,4.82
2022-09-12T01:33:18.209Z,4.70
2022-09-12T01:35:50.416Z,4.78
2022-09-12T01:38:25.253Z,3.70
2022-09-12T01:41:01.128Z,4.65
2022-09-12T01:43:34.026Z,4.65
2022-09-12T01:46:09.170Z,4.85
2022-09-12T01:48:40.563Z,4.03
2022-09-12T01:51:13.088Z,4.40
2022-09-12T01:53:45.759Z,4.85
2022-09-12T01:56:17.086Z,5.00
2022-09-12T01:58:48.164Z,4.70
2022-09-12T02:01:22.294Z,4.88
2022-09-12T02:03:56.191Z,5.05
2022-09-12T02:06:29.582Z,5.45
2022-09-12T02:09:01.281Z,4.38
2022-09-12T02:11:32.718Z,4.93
2022-09-12T02:14:04.447Z,5.22
2022-09-12T02:16:37.863Z,5.03
2022-09-12T02:19:10.213Z,4.60
2022-09-12T02:21:39.887Z,4.78
2022-09-12T02:24:09.760Z,4.80
2022-09-12T02:26:45.096Z,4.57
2022-09-12T02:29:13.722Z,4.25
2022-09-12T02:31:47.072Z,5.15
2022-09-12T02:34:27.491Z,5.20
2022-09-12T02:37:04.405Z,4.72
2022-09-12T02:39:33.130Z,4.82
2022-09-12T02:42:02.333Z,5.05
2022-09-12T02:44:31.494Z,4.90
2022-09-12T02:47:04.420Z,4.72
2022-09-12T02:49:32.668Z,5.15
2022-09-12T02:52:02.712Z,5.07
2022-09-12T02:54:31.852Z,5.55
2022-09-12T02:57:00.507Z,5.22
2022-09-12T02:59:29.402Z,5.38
2022-09-12T03:02:13.402Z,4.82
2022-09-12T03:04:55.784Z,5.75
2022-09-12T03:07:37.696Z,5.97
2022-09-12T03:10:10.814Z,6.10
2022-09-12T03:12:47.286Z,5.30
2022-09-12T03:15:24.128Z,5.85
2022-09-12T03:18:03.453Z,6.50
2022-09-12T03:20:42.155Z,5.53
2022-09-12T03:23:16.104Z,6.13
2022-09-12T03:25:47.616Z,5.47
2022-09-12T03:28:17.761Z,5.40
2022-09-12T03:30:47.619Z,4.95
2022-09-12T03:33:18.774Z,6.45
2022-09-12T03:35:48.013Z,6.13
2022-09-12T03:38:16.876Z,5.80
2022-09-12T03:40:47.797Z,5.65
2022-09-12T03:43:17.931Z,5.32
2022-09-12T03:45:46.543Z,5.53
2022-09-12T03:48:15.145Z,5.78
2022-09-12T03:50:45.121Z,5.43
2022-09-12T03:53:17.102Z,5.18
2022-09-12T03:55:45.865Z,5.50
2022-09-12T03:58:14.476Z,5.50
2022-09-12T04:00:44.372Z,5.78
2022-09-12T04:03:12.999Z,5.53
2022-09-12T04:05:41.686Z,6.00
2022-09-12T04:08:11.678Z,5.75
2022-09-12T04:10:39.959Z,6.30
2022-09-12T04:13:08.626Z,5.53
2022-09-12T04:15:37.208Z,6.35
2022-09-12T04:18:06.296Z,5.57
2022-09-12T04:20:35.025Z,7.63
2022-09-12T04:23:03.644Z,5.70
2022-09-12T04:25:33.366Z,7.05
2022-09-12T04:28:02.232Z,5.93
2022-09-12T04:30:30.905Z,6.25
2022-09-12T04:32:59.597Z,7.43
2022-09-12T04:35:28.697Z,6.28
2022-09-12T04:37:56.887Z,6.60
2022-09-12T04:40:25.628Z,6.93
2022-09-12T04:42:56.155Z,6.57
2022-09-12T04:45:24.845Z,6.65
2022-09-12T04:47:53.616Z,6.32
2022-09-12T04:50:22.727Z,6.38
2022-09-12T04:52:51.721Z,6.40
2022-09-12T04:55:20.637Z,5.85
2022-09-12T04:57:49.640Z,6.47
2022-09-12T05:00:20.719Z,5.82
2022-09-12T05:02:49.402Z,6.18
2022-09-12T05:05:18.203Z,6.15
2022-09-12T05:07:46.410Z,6.03
2022-09-12T05:10:15.093Z,6.30
2022-09-12T05:12:43.740Z,6.00
2022-09-12T05:15:12.882Z,6.00
2022-09-12T05:17:42.855Z,6.65
2022-09-12T05:20:12.907Z,6.22
2022-09-12T05:22:41.185Z,6.72
2022-09-12T05:25:10.916Z,5.82
2022-09-12T05:27:39.479Z,6.15
2022-09-12T05:30:09.518Z,5.75
2022-09-12T05:32:38.074Z,5.80
2022-09-12T05:35:08.656Z,5.45
2022-09-12T05:37:36.956Z,5.38
2022-09-12T05:40:08.647Z,6.20
2022-09-12T05:42:37.594Z,6.55
2022-09-12T05:45:07.307Z,5.90
2022-09-12T05:47:36.362Z,5.40
2022-09-12T05:50:10.814Z,6.82
2022-09-12T05:52:40.344Z,6.28
2022-09-12T05:55:09.726Z,5.65
2022-09-12T05:57:38.288Z,5.57
2022-09-12T06:00:09.831Z,7.35
2022-09-12T06:02:40.478Z,6.07
2022-09-12T06:05:09.522Z,5.75
2022-09-12T06:07:43.209Z,6.28
2022-09-12T06:10:12.041Z,6.38
2022-09-12T06:12:40.693Z,5.40
2022-09-12T06:15:10.504Z,6.22
2022-09-12T06:17:39.124Z,7.22
2022-09-12T06:20:08.881Z,6.45
2022-09-12T06:22:37.181Z,5.93
2022-09-12T06:25:09.062Z,6.15
2022-09-12T06:27:37.670Z,6.18
2022-09-12T06:30:07.548Z,6.20
2022-09-12T06:32:39.188Z,6.85
2022-09-12T06:35:08.682Z,7.25
2022-09-12T06:37:37.011Z,5.90
2022-09-12T06:40:10.276Z,6.32
2022-09-12T06:42:38.973Z,5.82
2022-09-12T06:45:11.613Z,6.28
2022-09-12T06:47:40.398Z,6.15
2022-09-12T06:50:09.927Z,6.85
2022-09-12T06:52:38.322Z,5.20
2022-09-12T06:55:09.287Z,5.53
2022-09-12T06:57:38.998Z,6.45
2022-09-12T07:00:09.295Z,5.95
2022-09-12T07:02:37.919Z,5.40
2022-09-12T07:05:08.387Z,5.78
2022-09-12T07:07:36.798Z,5.03
2022-09-12T07:10:06.915Z,5.20
2022-09-12T07:12:37.001Z,5.10
2022-09-12T07:15:06.403Z,4.90
2022-09-12T07:17:35.070Z,4.90
2022-09-12T07:20:04.063Z,5.35
2022-09-12T07:22:32.384Z,5.85
2022-09-12T07:25:01.083Z,5.60
2022-09-12T07:27:29.602Z,5.05
2022-09-12T07:30:00.553Z,5.43
2022-09-12T07:32:29.661Z,5.88
2022-09-12T07:34:58.244Z,4.82
2022-09-12T07:37:26.478Z,5.20
2022-09-12T07:39:55.773Z,5.13
2022-09-12T07:42:24.503Z,5.55
2022-09-12T07:44:53.835Z,5.88
2022-09-12T07:47:23.909Z,4.82
2022-09-12T07:49:52.990Z,5.27
2022-09-12T07:52:21.571Z,5.75
2022-09-12T07:54:50.345Z,5.72
2022-09-12T07:57:19.137Z,5.18
2022-09-12T07:59:52.885Z,4.00
2022-09-12T08:02:23.329Z,4.53
2022-09-12T08:04:52.033Z,4.47
2022-09-12T08:07:20.651Z,4.43
2022-09-12T08:09:49.326Z,4.88
2022-09-12T08:12:18.103Z,4.47
2022-09-12T08:14:46.761Z,4.70
2022-09-12T08:17:15.631Z,4.10
2022-09-12T08:19:45.258Z,4.50
2022-09-12T08:22:13.947Z,4.82
2022-09-12T08:24:44.056Z,4.97
2022-09-12T08:27:12.701Z,5.30
2022-09-12T08:29:41.336Z,4.38
2022-09-12T08:32:09.982Z,4.32
2022-09-12T08:34:38.261Z,4.60
2022-09-12T08:37:08.427Z,4.28
2022-09-12T08:39:37.244Z,4.80
2022-09-12T08:42:07.467Z,4.10
2022-09-12T08:44:49.620Z,4.60
2022-09-12T08:47:22.396Z,5.18
2022-09-12T08:49:57.628Z,4.60
2022-09-12T08:52:31.263Z,4.63
2022-09-12T08:54:59.923Z,4.35
2022-09-12T08:57:28.528Z,4.22
2022-09-12T08:59:57.212Z,4.15
2022-09-12T09:02:44.107Z,4.32
2022-09-12T09:05:21.034Z,4.95
2022-09-12T09:08:10.859Z,4.28
2022-09-12T09:10:48.927Z,4.80
2022-09-12T09:13:40.376Z,4.75
2022-09-12T09:16:15.337Z,4.15
2022-09-12T09:18:45.139Z,4.60
2022-09-12T09:21:18.934Z,4.22
2022-09-12T09:23:52.422Z,4.30
2022-09-12T09:26:26.769Z,4.00
2022-09-12T09:28:58.304Z,4.13
2022-09-12T09:31:28.415Z,3.78
2022-09-12T09:33:57.122Z,4.45
2022-09-12T09:36:34.078Z,4.85
2022-09-12T09:39:07.181Z,4.18
2022-09-12T09:41:44.985Z,3.75
2022-09-12T09:44:13.733Z,4.35
2022-09-12T09:46:42.021Z,4.05
2022-09-12T09:49:13.177Z,4.75
2022-09-12T09:51:42.878Z,4.00
2022-09-12T09:54:18.791Z,3.73
2022-09-12T09:56:47.458Z,4.55
2022-09-12T09:59:18.683Z,4.45
2022-09-12T10:01:49.279Z,4.13
2022-09-12T10:04:23.552Z,5.85
2022-09-12T10:06:56.371Z,4.00
2022-09-12T10:09:28.426Z,4.20
2022-09-12T10:11:57.925Z,3.55
2022-09-12T10:14:38.787Z,3.90
2022-09-12T10:17:33.808Z,4.68
2022-09-12T10:20:20.512Z,4.03
2022-09-12T10:22:50.567Z,4.15
2022-09-12T10:25:21.593Z,3.55
2022-09-12T10:27:55.450Z,3.60
2022-09-12T10:30:25.986Z,3.80
2022-09-12T10:32:55.590Z,4.10
2022-09-12T10:35:25.624Z,4.53
2022-09-12T10:37:55.729Z,4.15
2022-09-12T10:45:26.923Z,4.05
2022-09-12T10:47:58.252Z,4.28
2022-09-12T10:50:31.750Z,4.20
2022-09-12T10:53:18.038Z,3.92
2022-09-12T10:56:00.621Z,4.63
2022-09-12T10:58:39.972Z,4.35
2022-09-12T11:01:17.879Z,3.42
2022-09-12T11:03:59.606Z,4.40
2022-09-12T11:06:34.908Z,3.92
2022-09-12T11:09:07.638Z,3.38
2022-09-12T11:11:45.064Z,4.18
2022-09-12T11:14:25.260Z,3.58
2022-09-12T11:17:00.640Z,4.40
2022-09-12T11:19:51.115Z,3.55
2022-09-12T11:27:47.833Z,4.03
2022-09-12T11:30:18.334Z,3.20
2022-09-12T11:32:54.890Z,3.85
2022-09-12T11:35:26.015Z,3.30
2022-09-12T11:38:16.097Z,4.07
2022-09-12T11:40:47.503Z,3.88
2022-09-12T11:43:25.229Z,3.50
2022-09-12T11:45:54.511Z,3.60
2022-09-12T11:48:33.560Z,4.05
2022-09-12T11:51:04.951Z,3.80
2022-09-12T11:53:36.555Z,3.30
2022-09-12T11:56:09.544Z,3.60
2022-09-12T11:58:41.836Z,3.38
2022-09-12T12:01:14.480Z,3.20
2022-09-12T12:03:44.979Z,3.63
2022-09-12T12:08:45.075Z,3.72
2022-09-12T12:11:15.185Z,3.72
2022-09-12T12:13:49.046Z,3.92
2022-09-12T12:16:21.374Z,3.58
2022-09-12T12:18:55.738Z,3.40
2022-09-12T12:21:37.634Z,3.72
2022-09-12T12:24:18.413Z,3.53
2022-09-12T12:26:57.914Z,3.45
2022-09-12T12:29:44.032Z,3.20
2022-09-12T12:32:26.564Z,3.30
2022-09-12T12:35:37.552Z,3.08
2022-09-12T12:38:26.684Z,3.25
2022-09-12T12:40:55.350Z,3.28
2022-09-12T12:43:32.667Z,3.38
2022-09-12T12:46:09.642Z,2.75
2022-09-12T12:49:03.762Z,2.60
2022-09-12T12:51:41.698Z,3.10
2022-09-12T12:54:43.003Z,3.15
2022-09-12T12:57:52.718Z,3.35
2022-09-12T13:00:30.123Z,3.03
2022-09-12T13:03:02.695Z,3.25
2022-09-12T13:05:39.774Z,2.90
2022-09-12T13:08:11.491Z,3.30
2022-09-12T13:10:40.241Z,3.25
2022-09-12T13:13:09.855Z,3.35
2022-09-12T13:15:50.875Z,4.00
2022-09-12T13:20:55.017Z,3.45
2022-09-12T13:23:25.326Z,3.53
2022-09-12T13:25:55.393Z,4.13
2022-09-12T13:28:24.669Z,3.40
2022-09-12T13:30:59.495Z,3.30
2022-09-12T13:33:36.195Z,3.17
2022-09-12T13:36:17.627Z,3.50
2022-09-12T13:38:55.422Z,3.30
2022-09-12T13:41:41.552Z,3.15
2022-09-12T13:44:13.302Z,2.92
2022-09-12T13:46:42.869Z,3.00
2022-09-12T13:49:20.796Z,3.70
2022-09-12T13:51:57.774Z,3.42
2022-09-12T13:54:27.375Z,3.05
2022-09-12T13:56:55.926Z,3.57
2022-09-12T13:59:24.816Z,3.00
2022-09-12T14:01:53.177Z,2.80
2022-09-12T14:04:53.150Z,3.72
2022-09-12T14:07:22.806Z,3.33
2022-09-12T14:09:56.165Z,3.78
2022-09-12T14:12:28.686Z,3.05
2022-09-12T14:14:57.820Z,3.83
2022-09-12T14:17:31.596Z,3.20
2022-09-12T14:20:03.972Z,3.08
2022-09-12T14:22:34.333Z,3.00
2022-09-12T14:25:03.191Z,3.67
2022-09-12T14:27:38.294Z,3.75
2022-09-12T14:30:24.548Z,3.15
2022-09-12T14:33:07.778Z,2.67
2022-09-12T14:35:42.640Z,2.70
2022-09-12T14:38:23.432Z,2.85
2022-09-12T14:40:53.445Z,2.47
2022-09-12T14:45:55.956Z,3.00
2022-09-12T14:48:25.281Z,2.65
2022-09-12T14:50:55.629Z,2.90
2022-09-12T14:53:28.051Z,3.40
2022-09-12T14:56:00.943Z,3.00
2022-09-12T14:58:30.640Z,2.70
2022-09-12T15:01:01.988Z,2.95
2022-09-12T15:03:33.756Z,2.88
2022-09-12T15:06:05.392Z,2.78
2022-09-12T15:08:34.182Z,2.60
2022-09-12T15:11:02.817Z,2.58
2022-09-12T15:13:40.394Z,3.20
2022-09-12T15:16:10.905Z,2.85
2022-09-12T15:18:40.975Z,2.55
2022-09-12T15:21:14.211Z,2.85
2022-09-12T15:23:44.981Z,2.85
2022-09-12T15:26:15.758Z,3.30
2022-09-12T15:31:17.005Z,3.53
2022-09-12T15:33:46.001Z,3.00
2022-09-12T15:36:19.231Z,3.30
2022-09-12T15:38:49.325Z,3.50
2022-09-12T15:41:19.665Z,3.35
2022-09-12T15:43:48.799Z,3.85
2022-09-12T15:46:19.301Z,3.35
2022-09-12T15:48:48.334Z,3.45
2022-09-12T15:51:20.785Z,3.17
2022-09-12T15:53:50.369Z,3.03
2022-09-12T15:56:21.265Z,3.50
2022-09-12T15:58:58.760Z,3.20
2022-09-12T16:01:29.384Z,3.53
2022-09-12T16:03:58.670Z,3.50
2022-09-12T16:06:36.279Z,3.15
2022-09-12T16:09:05.947Z,2.88
2022-09-12T16:11:34.645Z,3.55
2022-09-12T16:14:03.889Z,3.10
2022-09-12T16:16:32.445Z,3.60
2022-09-12T16:19:01.159Z,3.17
2022-09-12T16:21:31.980Z,3.05
2022-09-12T16:24:00.600Z,3.65
2022-09-12T16:26:29.426Z,3.75
2022-09-12T16:28:58.899Z,3.80
2022-09-12T16:31:29.063Z,3.15
2022-09-12T16:33:57.850Z,3.58
2022-09-12T16:36:26.511Z,3.33
2022-09-12T16:38:56.614Z,4.53
2022-09-12T16:41:26.486Z,3.78
2022-09-12T16:43:55.309Z,3.90
2022-09-12T16:46:25.276Z,4.68
2022-09-12T16:48:56.027Z,4.50
2022-09-12T16:51:26.430Z,4.13
2022-09-12T16:53:57.284Z,4.65
2022-09-12T16:56:26.378Z,4.65
2022-09-12T16:58:55.177Z,4.88
2022-09-12T17:01:25.241Z,4.88
2022-09-12T17:03:54.776Z,5.28
2022-09-12T17:06:25.220Z,5.90
2022-09-12T17:11:26.629Z,5.13
2022-09-12T17:14:06.224Z,5.40
2022-09-12T17:16:36.627Z,5.47
2022-09-12T17:19:06.159Z,5.30
2022-09-12T17:21:35.593Z,5.60
2022-09-12T17:24:05.309Z,7.28
2022-09-12T17:26:35.279Z,5.90
2022-09-12T17:29:04.046Z,6.18
2022-09-12T17:31:32.851Z,5.10
2022-09-12T17:34:02.109Z,6.40
2022-09-12T17:36:32.061Z,6.45
2022-09-12T17:39:01.165Z,6.60
2022-09-12T17:41:31.921Z,6.97
2022-09-12T17:44:03.120Z,6.10
2022-09-12T17:46:34.938Z,7.15
2022-09-12T17:49:06.029Z,6.82
2022-09-12T17:51:34.759Z,7.15
2022-09-12T17:54:06.293Z,7.75
2022-09-12T17:56:35.806Z,7.38
2022-09-12T17:59:07.179Z,7.32
2022-09-12T18:01:54.546Z,7.32
2022-09-12T18:04:23.375Z,7.85
2022-09-12T18:06:52.869Z,7.47
2022-09-12T18:09:23.356Z,7.38
2022-09-12T18:14:22.693Z,6.97
2022-09-12T18:16:51.303Z,7.72
2022-09-12T18:19:20.909Z,9.18
2022-09-12T18:21:49.469Z,9.63
2022-09-12T18:24:19.277Z,9.23
2022-09-12T18:26:48.220Z,9.65
2022-09-12T18:29:17.359Z,9.48
2022-09-12T18:31:47.860Z,10.75
2022-09-12T18:34:17.614Z,11.18
2022-09-12T18:36:47.904Z,10.13
2022-09-12T18:39:17.226Z,11.13
2022-09-12T18:41:46.501Z,8.88
2022-09-12T18:44:15.145Z,9.07
2022-09-12T18:46:43.974Z,9.77
2022-09-12T18:49:14.325Z,9.43
2022-09-12T18:51:44.062Z,10.13
2022-09-12T18:54:14.939Z,10.10
2022-09-12T18:56:45.740Z,10.30
2022-09-12T18:59:15.163Z,9.23
2022-09-12T19:01:44.148Z,8.95
2022-09-12T19:04:16.418Z,9.85
2022-09-12T19:06:46.713Z,9.23
2022-09-12T19:09:17.048Z,10.05
2022-09-12T19:14:19.840Z,9.75
2022-09-12T19:16:48.199Z,10.95
2022-09-12T19:19:18.555Z,9.32
2022-09-12T19:24:17.160Z,10.40
2022-09-12T19:26:46.209Z,10.68
2022-09-12T19:29:16.628Z,9.93
2022-09-12T19:31:45.525Z,10.68
2022-09-12T19:34:14.499Z,10.40
2022-09-12T19:36:46.607Z,10.30
2022-09-12T19:39:16.653Z,10.27
2022-09-12T19:41:45.859Z,10.60
2022-09-12T19:44:14.538Z,10.25
2022-09-12T19:46:42.958Z,10.40
2022-09-12T19:49:13.009Z,10.00
2022-09-12T19:51:41.991Z,9.75
2022-09-12T19:54:12.324Z,11.38
2022-09-12T19:56:41.090Z,10.52
2022-09-12T19:59:10.037Z,10.57
2022-09-12T20:01:38.581Z,11.75
2022-09-12T20:04:08.019Z,11.35
2022-09-12T20:06:36.964Z,11.13
2022-09-12T20:09:05.977Z,11.43
2022-09-12T20:11:36.097Z,11.23
2022-09-12T20:14:04.807Z,11.50
2022-09-12T20:16:33.755Z,11.77
2022-09-12T20:19:06.152Z,11.65
2022-09-12T20:21:36.141Z,13.55
2022-09-12T20:24:06.957Z,11.13
2022-09-12T20:26:37.280Z,12.90
2022-09-12T20:29:06.529Z,12.73
2022-09-12T20:31:35.651Z,12.52
2022-09-12T20:34:04.607Z,11.40
2022-09-12T20:36:33.714Z,11.48
2022-09-12T20:39:03.165Z,12.07
2022-09-12T20:41:34.122Z,12.00
2022-09-12T20:44:04.742Z,13.93
2022-09-12T20:46:33.651Z,13.15
2022-09-12T20:49:02.501Z,12.15
2022-09-12T20:51:31.585Z,12.55
2022-09-12T20:54:01.475Z,13.07
2022-09-12T20:56:31.787Z,12.40
2022-09-12T20:59:00.488Z,14.57
2022-09-12T21:01:31.454Z,14.48
2022-09-12T21:04:00.958Z,14.32
2022-09-12T21:06:29.712Z,15.60
2022-09-12T21:09:00.698Z,15.00
2022-09-12T21:11:29.925Z,14.65
2022-09-12T21:13:59.164Z,16.08
2022-09-12T21:16:32.000Z,14.77
2022-09-12T21:19:00.753Z,15.85
2022-09-12T21:21:29.586Z,15.13
2022-09-12T21:24:02.437Z,16.70
2022-09-12T21:26:31.302Z,15.27
2022-09-12T21:29:00.223Z,15.10
2022-09-12T21:31:28.734Z,15.40
2022-09-12T21:33:58.979Z,17.45
2022-09-12T21:36:27.757Z,16.60
2022-09-12T21:38:59.339Z,15.52
2022-09-12T21:41:28.931Z,15.65
2022-09-12T21:43:57.358Z,17.45
2022-09-12T21:46:26.142Z,16.83
2022-09-12T21:48:55.094Z,16.88
2022-09-12T21:51:25.215Z,17.10
2022-09-12T21:53:54.693Z,17.98
2022-09-12T21:56:23.393Z,17.95
2022-09-12T21:58:51.802Z,17.45
2022-09-12T22:01:20.696Z,16.80
2022-09-12T22:03:49.599Z,16.00
2022-09-12T22:06:22.394Z,17.58
2022-09-12T22:08:52.833Z,17.02
2022-09-12T22:11:22.989Z,18.20
2022-09-12T22:13:51.281Z,17.95
2022-09-12T22:16:20.096Z,16.52
2022-09-12T22:18:50.227Z,17.35
2022-09-12T22:21:22.094Z,18.40
2022-09-12T22:24:09.646Z,18.85
2022-09-12T22:26:42.544Z,18.00
2022-09-12T22:29:11.820Z,17.92
2022-09-12T22:31:40.682Z,18.23
2022-09-12T22:34:09.469Z,18.20
2022-09-12T22:36:39.184Z,18.77
2022-09-12T22:39:09.972Z,18.83
2022-09-12T22:41:38.814Z,19.60
2022-09-12T22:44:07.722Z,19.60
2022-09-12T22:46:36.128Z,18.23
2022-09-12T22:49:05.384Z,17.23
2022-09-12T22:51:34.664Z,18.50
2022-09-12T22:54:03.547Z,18.58
2022-09-12T22:56:33.965Z,17.13
2022-09-12T23:01:31.927Z,20.90
2022-09-12T23:04:01.269Z,20.90
2022-09-12T23:06:30.131Z,20.38
2022-09-12T23:08:58.785Z,21.77
2022-09-12T23:11:27.880Z,21.65
2022-09-12T23:13:57.678Z,18.63
2022-09-12T23:16:28.455Z,20.50
2022-09-12T23:18:57.399Z,17.85
2022-09-12T23:21:26.302Z,17.25
2022-09-12T23:23:56.338Z,18.23
2022-09-12T23:26:28.263Z,16.75
2022-09-12T23:28:59.233Z,16.20
2022-09-12T23:31:30.360Z,17.63
2022-09-12T23:34:01.986Z,17.83
2022-09-12T23:36:30.863Z,18.45
2022-09-12T23:38:59.933Z,19.92
2022-09-12T23:41:28.861Z,20.35
2022-09-12T23:43:59.038Z,17.20
2022-09-12T23:46:27.512Z,19.27
2022-09-12T23:48:56.320Z,17.65
2022-09-12T23:51:25.003Z,18.63
2022-09-12T23:53:53.803Z,21.23
2022-09-12T23:56:23.110Z,21.63
2022-09-12T23:58:51.634Z,22.13
